This is the latest recevied weather packets stored in our database for station/object IV3CLI-10. If no packets are shown the sender has not sent any weather packets the latest 10 day(s).
| Time | Temp. | Humidity | Pressure | Rain* | Wind** | Luminosity | Snow |
|---|---|---|---|---|---|---|---|
| 1777055590 | 13.89° C | 100% | 1015.5 hPa | - | - | - | - |
| 1777054690 | 15° C | 100% | 1015.5 hPa | - | - | - | - |
| 1777053790 | 16.11° C | 100% | 1015.4 hPa | - | - | - | - |
| 1777052889 | 17.78° C | 100% | 1015.3 hPa | - | - | - | - |
| 1777051989 | 19.44° C | 100% | 1015.2 hPa | - | - | - | - |
| 1777051089 | 20° C | 100% | 1015.3 hPa | - | - | - | - |
| 1777050189 | 20° C | 100% | 1015.3 hPa | - | - | - | - |
| 1777049362 | 21.11° C | 100% | 1015.5 hPa | - | - | - | - |
| 1777049289 | 21.11° C | 100% | 1015.5 hPa | - | - | - | - |
| 1777048389 | 21.67° C | 69% | 1015.5 hPa | - | - | - | - |
| 1777047488 | 21.67° C | 67% | 1015.7 hPa | - | - | - | - |
| 1777046588 | 22.22° C | 57% | 1015.6 hPa | - | - | - | - |
| 1777045688 | 21.67° C | 78% | 1015.8 hPa | - | - | - | - |
| 1777044788 | 21.67° C | 86% | 1015.8 hPa | - | - | - | - |
| 1777043888 | 21.67° C | 79% | 1015.9 hPa | - | - | - | - |
| 1777042988 | 22.78° C | 71% | 1016 hPa | - | - | - | - |
| 1777042088 | 22.78° C | 60% | 1016.1 hPa | - | - | - | - |
| 1777041188 | 22.22° C | 58% | 1016.2 hPa | - | - | - | - |
| 1777040288 | 22.78° C | 55% | 1016.1 hPa | - | - | - | - |
| 1777039388 | 22.78° C | 48% | 1016.3 hPa | - | - | - | - |
| 1777038488 | 22.22° C | 49% | 1016.4 hPa | - | - | - | - |
| 1777037587 | 22.78° C | 63% | 1016.5 hPa | - | - | - | - |
| 1777036686 | 22.78° C | 74% | 1016.8 hPa | - | - | - | - |
| 1777035786 | 23.33° C | 87% | 1016.9 hPa | - | - | - | - |
| 1777034886 | 22.78° C | 89% | 1017 hPa | - | - | - | - |
* Rain since midnight (hover to see other rain measurements)
** Current wind speed in m/s (hover to see current wind gust speed)